sensor_id;sensor_type;location;lat;lon;timestamp;pressure;altitude;pressure_sealevel;temperature;humidity
72285;BME280;60220;53.552;10.092;2023-07-31T00:00:00;100651.84;;;15.75;100.00
72285;BME280;60220;53.552;10.092;2023-07-31T00:02:26;100643.09;;;15.73;100.00
72285;BME280;60220;53.552;10.092;2023-07-31T00:04:55;100656.06;;;15.56;100.00
72285;BME280;60220;53.552;10.092;2023-07-31T00:07:23;100653.03;;;15.66;100.00
72285;BME280;60220;53.552;10.092;2023-07-31T00:09:50;100646.56;;;16.23;100.00
72285;BME280;60220;53.552;10.092;2023-07-31T00:12:18;100639.63;;;15.96;100.00
72285;BME280;60220;53.552;10.092;2023-07-31T00:14:45;100634.25;;;15.74;100.00
72285;BME280;60220;53.552;10.092;2023-07-31T00:17:14;100631.91;;;15.89;100.00
72285;BME280;60220;53.552;10.092;2023-07-31T00:19:41;100648.44;;;15.45;100.00
72285;BME280;60220;53.552;10.092;2023-07-31T00:22:07;100637.44;;;15.59;100.00
72285;BME280;60220;53.552;10.092;2023-07-31T00:24:38;100630.56;;;15.78;100.00
72285;BME280;60220;53.552;10.092;2023-07-31T00:27:05;100631.75;;;15.69;100.00
72285;BME280;60220;53.552;10.092;2023-07-31T00:29:33;100626.91;;;15.82;100.00
72285;BME280;60220;53.552;10.092;2023-07-31T00:32:00;100620.41;;;15.66;100.00
72285;BME280;60220;53.552;10.092;2023-07-31T00:34:27;100629.50;;;15.83;100.00
72285;BME280;60220;53.552;10.092;2023-07-31T00:36:56;100620.66;;;16.08;100.00
72285;BME280;60220;53.552;10.092;2023-07-31T00:39:25;100628.16;;;15.95;100.00
72285;BME280;60220;53.552;10.092;2023-07-31T00:41:55;100621.56;;;15.59;100.00
72285;BME280;60220;53.552;10.092;2023-07-31T00:44:22;100626.31;;;15.74;100.00
72285;BME280;60220;53.552;10.092;2023-07-31T00:46:49;100619.75;;;15.59;100.00
72285;BME280;60220;53.552;10.092;2023-07-31T00:49:15;100619.75;;;15.59;100.00
72285;BME280;60220;53.552;10.092;2023-07-31T00:51:42;100612.13;;;15.50;100.00
72285;BME280;60220;53.552;10.092;2023-07-31T00:54:11;100613.22;;;15.69;100.00
72285;BME280;60220;53.552;10.092;2023-07-31T00:56:38;100605.03;;;15.26;100.00
72285;BME280;60220;53.552;10.092;2023-07-31T00:59:08;100617.59;;;15.70;100.00
72285;BME280;60220;53.552;10.092;2023-07-31T01:01:34;100615.66;;;15.75;100.00
72285;BME280;60220;53.552;10.092;2023-07-31T01:04:01;100608.44;;;15.56;100.00
72285;BME280;60220;53.552;10.092;2023-07-31T01:06:33;100610.13;;;15.32;100.00
72285;BME280;60220;53.552;10.092;2023-07-31T01:09:04;100595.47;;;15.48;100.00
72285;BME280;60220;53.552;10.092;2023-07-31T01:11:39;100597.91;;;16.02;100.00
72285;BME280;60220;53.552;10.092;2023-07-31T01:14:10;100594.47;;;15.75;100.00
72285;BME280;60220;53.552;10.092;2023-07-31T01:16:37;100594.13;;;15.84;100.00
72285;BME280;60220;53.552;10.092;2023-07-31T01:19:04;100588.44;;;15.47;100.00
72285;BME280;60220;53.552;10.092;2023-07-31T01:21:49;100589.31;;;15.72;100.00
72285;BME280;60220;53.552;10.092;2023-07-31T01:24:22;100582.97;;;15.76;100.00
72285;BME280;60220;53.552;10.092;2023-07-31T01:26:56;100580.63;;;15.44;100.00
72285;BME280;60220;53.552;10.092;2023-07-31T01:29:32;100579.22;;;15.34;100.00
72285;BME280;60220;53.552;10.092;2023-07-31T01:32:02;100584.41;;;15.11;100.00
72285;BME280;60220;53.552;10.092;2023-07-31T01:34:30;100576.56;;;15.34;100.00
72285;BME280;60220;53.552;10.092;2023-07-31T01:37:00;100569.41;;;15.85;100.00
72285;BME280;60220;53.552;10.092;2023-07-31T01:39:26;100568.91;;;15.51;100.00
72285;BME280;60220;53.552;10.092;2023-07-31T01:41:54;100562.25;;;15.64;100.00
72285;BME280;60220;53.552;10.092;2023-07-31T01:44:21;100559.84;;;15.58;100.00
72285;BME280;60220;53.552;10.092;2023-07-31T01:46:47;100566.19;;;15.77;100.00
72285;BME280;60220;53.552;10.092;2023-07-31T01:49:14;100558.94;;;15.82;100.00
72285;BME280;60220;53.552;10.092;2023-07-31T01:51:41;100551.09;;;15.56;100.00
72285;BME280;60220;53.552;10.092;2023-07-31T01:54:10;100550.53;;;15.46;100.00
72285;BME280;60220;53.552;10.092;2023-07-31T01:56:39;100549.00;;;15.39;100.00
72285;BME280;60220;53.552;10.092;2023-07-31T01:59:07;100542.97;;;15.36;100.00
72285;BME280;60220;53.552;10.092;2023-07-31T02:01:34;100537.78;;;15.82;100.00
72285;BME280;60220;53.552;10.092;2023-07-31T02:04:01;100536.94;;;15.57;100.00
72285;BME280;60220;53.552;10.092;2023-07-31T02:06:28;100533.97;;;15.66;100.00
72285;BME280;60220;53.552;10.092;2023-07-31T02:08:54;100529.19;;;15.53;100.00
72285;BME280;60220;53.552;10.092;2023-07-31T02:11:21;100534.66;;;15.71;100.00
72285;BME280;60220;53.552;10.092;2023-07-31T02:13:50;100535.59;;;15.93;100.00
72285;BME280;60220;53.552;10.092;2023-07-31T02:16:18;100539.84;;;15.98;100.00
72285;BME280;60220;53.552;10.092;2023-07-31T02:18:44;100531.91;;;16.41;100.00
72285;BME280;60220;53.552;10.092;2023-07-31T02:21:13;100532.56;;;15.79;100.00
72285;BME280;60220;53.552;10.092;2023-07-31T02:23:40;100529.25;;;15.74;100.00
72285;BME280;60220;53.552;10.092;2023-07-31T02:26:09;100529.81;;;16.06;100.00
72285;BME280;60220;53.552;10.092;2023-07-31T02:28:36;100526.25;;;16.28;100.00
72285;BME280;60220;53.552;10.092;2023-07-31T02:31:02;100521.66;;;16.10;100.00
72285;BME280;60220;53.552;10.092;2023-07-31T02:33:30;100519.97;;;16.31;100.00
72285;BME280;60220;53.552;10.092;2023-07-31T02:35:57;100519.84;;;16.56;100.00
72285;BME280;60220;53.552;10.092;2023-07-31T02:38:24;100518.06;;;16.56;100.00
72285;BME280;60220;53.552;10.092;2023-07-31T02:40:53;100519.19;;;15.84;100.00
72285;BME280;60220;53.552;10.092;2023-07-31T02:43:19;100518.22;;;16.30;100.00
72285;BME280;60220;53.552;10.092;2023-07-31T02:45:51;100514.53;;;16.34;100.00
72285;BME280;60220;53.552;10.092;2023-07-31T02:48:17;100511.84;;;16.14;100.00
72285;BME280;60220;53.552;10.092;2023-07-31T02:50:45;100520.84;;;16.31;100.00
72285;BME280;60220;53.552;10.092;2023-07-31T02:53:12;100506.78;;;16.29;100.00
72285;BME280;60220;53.552;10.092;2023-07-31T02:55:39;100502.66;;;15.77;100.00
72285;BME280;60220;53.552;10.092;2023-07-31T02:58:06;100503.09;;;16.12;100.00
72285;BME280;60220;53.552;10.092;2023-07-31T03:00:32;100502.66;;;16.66;100.00
72285;BME280;60220;53.552;10.092;2023-07-31T03:03:01;100502.03;;;16.16;100.00
72285;BME280;60220;53.552;10.092;2023-07-31T03:05:28;100505.66;;;15.91;100.00
72285;BME280;60220;53.552;10.092;2023-07-31T03:07:58;100499.81;;;16.70;100.00
72285;BME280;60220;53.552;10.092;2023-07-31T03:10:28;100489.66;;;16.16;100.00
72285;BME280;60220;53.552;10.092;2023-07-31T03:12:54;100491.75;;;16.30;100.00
72285;BME280;60220;53.552;10.092;2023-07-31T03:15:21;100493.16;;;17.02;100.00
72285;BME280;60220;53.552;10.092;2023-07-31T03:17:47;100494.59;;;16.25;100.00
72285;BME280;60220;53.552;10.092;2023-07-31T03:20:16;100485.78;;;16.89;100.00
72285;BME280;60220;53.552;10.092;2023-07-31T03:22:43;100486.16;;;16.79;100.00
72285;BME280;60220;53.552;10.092;2023-07-31T03:25:13;100476.72;;;16.52;100.00
72285;BME280;60220;53.552;10.092;2023-07-31T03:27:40;100470.00;;;16.86;100.00
72285;BME280;60220;53.552;10.092;2023-07-31T03:30:09;100477.44;;;16.34;100.00
72285;BME280;60220;53.552;10.092;2023-07-31T03:32:36;100468.09;;;16.47;100.00
72285;BME280;60220;53.552;10.092;2023-07-31T03:35:04;100478.34;;;16.13;100.00
72285;BME280;60220;53.552;10.092;2023-07-31T03:37:30;100476.88;;;16.69;100.00
72285;BME280;60220;53.552;10.092;2023-07-31T03:39:57;100475.72;;;16.97;100.00
72285;BME280;60220;53.552;10.092;2023-07-31T03:42:25;100478.63;;;16.91;100.00
72285;BME280;60220;53.552;10.092;2023-07-31T03:44:52;100469.47;;;17.18;100.00
72285;BME280;60220;53.552;10.092;2023-07-31T03:47:19;100471.47;;;16.72;100.00
72285;BME280;60220;53.552;10.092;2023-07-31T03:49:45;100471.72;;;16.87;100.00
72285;BME280;60220;53.552;10.092;2023-07-31T03:52:14;100472.91;;;16.59;100.00
72285;BME280;60220;53.552;10.092;2023-07-31T03:54:41;100477.91;;;16.87;100.00
72285;BME280;60220;53.552;10.092;2023-07-31T03:57:09;100471.06;;;16.61;100.00
72285;BME280;60220;53.552;10.092;2023-07-31T03:59:38;100470.25;;;16.79;100.00
72285;BME280;60220;53.552;10.092;2023-07-31T04:02:05;100470.78;;;16.46;100.00
72285;BME280;60220;53.552;10.092;2023-07-31T04:04:31;100474.00;;;17.35;100.00
72285;BME280;60220;53.552;10.092;2023-07-31T04:06:58;100479.47;;;16.71;100.00
72285;BME280;60220;53.552;10.092;2023-07-31T04:09:25;100475.84;;;16.73;100.00
72285;BME280;60220;53.552;10.092;2023-07-31T04:11:51;100483.03;;;16.28;100.00
72285;BME280;60220;53.552;10.092;2023-07-31T04:14:18;100470.66;;;17.11;100.00
72285;BME280;60220;53.552;10.092;2023-07-31T04:16:46;100472.81;;;16.19;100.00
72285;BME280;60220;53.552;10.092;2023-07-31T04:19:12;100460.34;;;16.43;100.00
72285;BME280;60220;53.552;10.092;2023-07-31T04:21:42;100464.03;;;16.60;100.00
72285;BME280;60220;53.552;10.092;2023-07-31T04:24:11;100451.03;;;16.74;100.00
72285;BME280;60220;53.552;10.092;2023-07-31T04:26:37;100457.88;;;16.16;100.00
72285;BME280;60220;53.552;10.092;2023-07-31T04:29:04;100449.47;;;16.91;100.00
72285;BME280;60220;53.552;10.092;2023-07-31T04:31:31;100455.97;;;16.20;100.00
72285;BME280;60220;53.552;10.092;2023-07-31T04:33:59;100459.44;;;17.04;100.00
72285;BME280;60220;53.552;10.092;2023-07-31T04:36:25;100453.41;;;17.60;100.00
72285;BME280;60220;53.552;10.092;2023-07-31T04:38:52;100445.56;;;16.37;100.00
72285;BME280;60220;53.552;10.092;2023-07-31T04:41:21;100453.03;;;16.69;100.00
72285;BME280;60220;53.552;10.092;2023-07-31T04:43:48;100441.75;;;16.85;100.00
72285;BME280;60220;53.552;10.092;2023-07-31T04:46:14;100445.84;;;16.51;100.00
72285;BME280;60220;53.552;10.092;2023-07-31T04:48:42;100437.16;;;16.48;100.00
72285;BME280;60220;53.552;10.092;2023-07-31T04:51:10;100434.75;;;16.84;100.00
72285;BME280;60220;53.552;10.092;2023-07-31T04:53:37;100430.19;;;16.87;100.00
72285;BME280;60220;53.552;10.092;2023-07-31T04:56:03;100433.81;;;16.85;100.00
72285;BME280;60220;53.552;10.092;2023-07-31T04:58:32;100434.16;;;16.97;100.00
72285;BME280;60220;53.552;10.092;2023-07-31T05:00:59;100430.88;;;17.11;100.00
72285;BME280;60220;53.552;10.092;2023-07-31T05:03:26;100432.47;;;16.95;100.00
72285;BME280;60220;53.552;10.092;2023-07-31T05:05:52;100434.84;;;17.40;100.00
72285;BME280;60220;53.552;10.092;2023-07-31T05:08:23;100431.41;;;16.99;100.00
72285;BME280;60220;53.552;10.092;2023-07-31T05:10:50;100445.66;;;17.74;100.00
72285;BME280;60220;53.552;10.092;2023-07-31T05:13:16;100443.78;;;17.95;100.00
72285;BME280;60220;53.552;10.092;2023-07-31T05:15:43;100444.78;;;16.55;100.00
72285;BME280;60220;53.552;10.092;2023-07-31T05:18:12;100446.56;;;16.55;100.00
72285;BME280;60220;53.552;10.092;2023-07-31T05:20:41;100449.91;;;17.39;100.00
72285;BME280;60220;53.552;10.092;2023-07-31T05:23:07;100441.50;;;17.87;100.00
72285;BME280;60220;53.552;10.092;2023-07-31T05:25:35;100434.56;;;18.21;100.00
72285;BME280;60220;53.552;10.092;2023-07-31T05:28:02;100429.41;;;18.18;100.00
72285;BME280;60220;53.552;10.092;2023-07-31T05:30:31;100432.47;;;17.73;100.00
72285;BME280;60220;53.552;10.092;2023-07-31T05:32:58;100441.84;;;17.42;100.00
72285;BME280;60220;53.552;10.092;2023-07-31T05:35:24;100437.69;;;17.74;100.00
72285;BME280;60220;53.552;10.092;2023-07-31T05:37:51;100434.47;;;17.86;100.00
72285;BME280;60220;53.552;10.092;2023-07-31T05:40:18;100436.34;;;17.08;100.00
72285;BME280;60220;53.552;10.092;2023-07-31T05:42:46;100433.03;;;17.60;100.00
72285;BME280;60220;53.552;10.092;2023-07-31T05:45:12;100432.75;;;17.67;100.00
72285;BME280;60220;53.552;10.092;2023-07-31T05:47:42;100428.88;;;16.55;100.00
72285;BME280;60220;53.552;10.092;2023-07-31T05:50:09;100425.19;;;17.00;100.00
72285;BME280;60220;53.552;10.092;2023-07-31T05:52:35;100427.19;;;16.95;100.00
72285;BME280;60220;53.552;10.092;2023-07-31T05:55:02;100424.56;;;16.32;100.00
72285;BME280;60220;53.552;10.092;2023-07-31T05:57:31;100414.34;;;16.65;100.00
72285;BME280;60220;53.552;10.092;2023-07-31T06:00:01;100416.88;;;16.05;100.00
72285;BME280;60220;53.552;10.092;2023-07-31T06:02:28;100403.44;;;16.51;100.00
72285;BME280;60220;53.552;10.092;2023-07-31T06:04:58;100401.50;;;16.76;100.00
72285;BME280;60220;53.552;10.092;2023-07-31T06:07:28;100401.22;;;16.62;100.00
72285;BME280;60220;53.552;10.092;2023-07-31T06:09:54;100399.16;;;17.28;100.00
72285;BME280;60220;53.552;10.092;2023-07-31T06:12:22;100391.66;;;16.38;100.00
72285;BME280;60220;53.552;10.092;2023-07-31T06:14:50;100397.25;;;16.30;100.00
72285;BME280;60220;53.552;10.092;2023-07-31T06:17:18;100400.25;;;17.04;100.00
72285;BME280;60220;53.552;10.092;2023-07-31T06:19:45;100403.25;;;16.96;100.00
72285;BME280;60220;53.552;10.092;2023-07-31T06:22:12;100405.56;;;17.04;100.00
72285;BME280;60220;53.552;10.092;2023-07-31T06:24:38;100405.03;;;17.35;100.00
72285;BME280;60220;53.552;10.092;2023-07-31T06:27:06;100396.69;;;16.85;100.00
72285;BME280;60220;53.552;10.092;2023-07-31T06:29:32;100401.03;;;16.87;100.00
72285;BME280;60220;53.552;10.092;2023-07-31T06:31:59;100396.94;;;16.99;100.00
72285;BME280;60220;53.552;10.092;2023-07-31T06:34:27;100399.75;;;16.75;100.00
72285;BME280;60220;53.552;10.092;2023-07-31T06:36:55;100408.16;;;17.24;100.00
72285;BME280;60220;53.552;10.092;2023-07-31T06:39:21;100394.28;;;16.99;100.00
72285;BME280;60220;53.552;10.092;2023-07-31T06:41:48;100397.47;;;16.46;100.00
72285;BME280;60220;53.552;10.092;2023-07-31T06:44:15;100393.84;;;16.89;100.00
72285;BME280;60220;53.552;10.092;2023-07-31T06:46:42;100390.56;;;17.23;100.00
72285;BME280;60220;53.552;10.092;2023-07-31T06:49:09;100395.59;;;16.70;100.00
72285;BME280;60220;53.552;10.092;2023-07-31T06:51:37;100402.84;;;17.24;100.00
72285;BME280;60220;53.552;10.092;2023-07-31T06:54:03;100390.31;;;16.89;100.00
72285;BME280;60220;53.552;10.092;2023-07-31T06:56:30;100392.91;;;17.29;100.00
72285;BME280;60220;53.552;10.092;2023-07-31T06:58:59;100392.41;;;17.21;100.00
72285;BME280;60220;53.552;10.092;2023-07-31T07:01:28;100394.41;;;17.35;100.00
72285;BME280;60220;53.552;10.092;2023-07-31T07:03:55;100396.88;;;17.58;100.00
72285;BME280;60220;53.552;10.092;2023-07-31T07:06:22;100392.63;;;16.77;100.00
72285;BME280;60220;53.552;10.092;2023-07-31T07:08:50;100395.47;;;17.49;100.00
72285;BME280;60220;53.552;10.092;2023-07-31T07:11:16;100395.06;;;16.82;100.00
72285;BME280;60220;53.552;10.092;2023-07-31T07:13:43;100401.53;;;16.95;100.00
72285;BME280;60220;53.552;10.092;2023-07-31T07:16:10;100404.84;;;17.77;100.00
72285;BME280;60220;53.552;10.092;2023-07-31T07:18:36;100405.28;;;17.10;100.00
72285;BME280;60220;53.552;10.092;2023-07-31T07:21:03;100402.47;;;17.33;100.00
72285;BME280;60220;53.552;10.092;2023-07-31T07:23:30;100395.75;;;17.06;100.00
72285;BME280;60220;53.552;10.092;2023-07-31T07:25:58;100387.94;;;17.03;100.00
72285;BME280;60220;53.552;10.092;2023-07-31T07:28:24;100393.66;;;16.53;100.00
72285;BME280;60220;53.552;10.092;2023-07-31T07:30:54;100393.50;;;16.97;100.00
72285;BME280;60220;53.552;10.092;2023-07-31T07:33:20;100391.56;;;16.61;100.00
72285;BME280;60220;53.552;10.092;2023-07-31T07:35:47;100393.88;;;17.66;100.00
72285;BME280;60220;53.552;10.092;2023-07-31T07:38:14;100382.28;;;16.71;100.00
72285;BME280;60220;53.552;10.092;2023-07-31T07:40:41;100384.66;;;16.77;100.00
72285;BME280;60220;53.552;10.092;2023-07-31T07:43:12;100388.13;;;17.75;100.00
72285;BME280;60220;53.552;10.092;2023-07-31T07:45:38;100382.63;;;17.03;100.00
72285;BME280;60220;53.552;10.092;2023-07-31T07:48:05;100388.03;;;17.39;100.00
72285;BME280;60220;53.552;10.092;2023-07-31T07:50:32;100390.56;;;17.42;100.00
72285;BME280;60220;53.552;10.092;2023-07-31T07:52:58;100382.56;;;17.62;100.00
72285;BME280;60220;53.552;10.092;2023-07-31T07:55:25;100384.38;;;17.79;100.00
72285;BME280;60220;53.552;10.092;2023-07-31T07:57:51;100387.13;;;18.13;100.00
72285;BME280;60220;53.552;10.092;2023-07-31T08:00:20;100379.84;;;17.06;100.00
72285;BME280;60220;53.552;10.092;2023-07-31T08:02:46;100384.13;;;17.66;100.00
72285;BME280;60220;53.552;10.092;2023-07-31T08:05:13;100373.69;;;18.16;100.00
72285;BME280;60220;53.552;10.092;2023-07-31T08:07:40;100367.72;;;18.28;100.00
72285;BME280;60220;53.552;10.092;2023-07-31T08:10:07;100368.63;;;18.63;100.00
72285;BME280;60220;53.552;10.092;2023-07-31T08:12:33;100364.63;;;18.55;100.00
72285;BME280;60220;53.552;10.092;2023-07-31T08:15:00;100363.72;;;18.56;100.00
72285;BME280;60220;53.552;10.092;2023-07-31T08:17:28;100363.69;;;18.21;100.00
72285;BME280;60220;53.552;10.092;2023-07-31T08:19:55;100363.03;;;18.85;100.00
72285;BME280;60220;53.552;10.092;2023-07-31T08:22:23;100370.56;;;18.77;100.00
72285;BME280;60220;53.552;10.092;2023-07-31T08:24:50;100357.41;;;18.91;100.00
72285;BME280;60220;53.552;10.092;2023-07-31T08:27:17;100359.00;;;19.26;100.00
72285;BME280;60220;53.552;10.092;2023-07-31T08:29:43;100348.81;;;18.52;100.00
72285;BME280;60220;53.552;10.092;2023-07-31T08:32:10;100356.84;;;18.84;100.00
72285;BME280;60220;53.552;10.092;2023-07-31T08:34:40;100348.91;;;17.62;100.00
72285;BME280;60220;53.552;10.092;2023-07-31T08:37:07;100346.50;;;17.56;100.00
72285;BME280;60220;53.552;10.092;2023-07-31T08:39:33;100333.91;;;18.15;100.00
72285;BME280;60220;53.552;10.092;2023-07-31T08:42:00;100335.38;;;19.20;100.00
72285;BME280;60220;53.552;10.092;2023-07-31T08:44:27;100329.31;;;19.34;100.00
72285;BME280;60220;53.552;10.092;2023-07-31T08:46:54;100331.63;;;18.24;100.00
72285;BME280;60220;53.552;10.092;2023-07-31T08:49:24;100329.53;;;17.96;100.00
72285;BME280;60220;53.552;10.092;2023-07-31T08:51:54;100328.97;;;18.07;100.00
72285;BME280;60220;53.552;10.092;2023-07-31T08:54:23;100327.56;;;19.02;100.00
72285;BME280;60220;53.552;10.092;2023-07-31T08:56:50;100326.50;;;18.21;100.00
72285;BME280;60220;53.552;10.092;2023-07-31T08:59:22;100329.13;;;18.38;100.00
72285;BME280;60220;53.552;10.092;2023-07-31T09:01:50;100323.91;;;18.20;100.00
72285;BME280;60220;53.552;10.092;2023-07-31T09:04:19;100330.50;;;19.28;100.00
72285;BME280;60220;53.552;10.092;2023-07-31T09:06:47;100319.28;;;18.90;100.00
72285;BME280;60220;53.552;10.092;2023-07-31T09:09:16;100327.66;;;18.83;100.00
72285;BME280;60220;53.552;10.092;2023-07-31T09:11:42;100313.19;;;18.04;100.00
72285;BME280;60220;53.552;10.092;2023-07-31T09:14:10;100319.00;;;18.12;100.00
72285;BME280;60220;53.552;10.092;2023-07-31T09:16:51;100316.75;;;19.05;100.00
72285;BME280;60220;53.552;10.092;2023-07-31T09:19:27;100320.16;;;18.91;100.00
72285;BME280;60220;53.552;10.092;2023-07-31T09:21:56;100318.34;;;18.59;100.00
72285;BME280;60220;53.552;10.092;2023-07-31T09:24:28;100314.44;;;19.30;100.00
72285;BME280;60220;53.552;10.092;2023-07-31T09:26:57;100313.47;;;19.00;100.00
72285;BME280;60220;53.552;10.092;2023-07-31T09:29:27;100315.44;;;18.96;100.00
72285;BME280;60220;53.552;10.092;2023-07-31T09:31:55;100314.88;;;19.22;100.00
72285;BME280;60220;53.552;10.092;2023-07-31T09:34:29;100308.19;;;19.15;100.00
72285;BME280;60220;53.552;10.092;2023-07-31T09:36:58;100305.78;;;19.26;100.00
72285;BME280;60220;53.552;10.092;2023-07-31T09:39:31;100299.28;;;19.48;100.00
72285;BME280;60220;53.552;10.092;2023-07-31T09:41:58;100291.53;;;19.59;100.00
72285;BME280;60220;53.552;10.092;2023-07-31T09:44:37;100291.84;;;18.90;100.00
72285;BME280;60220;53.552;10.092;2023-07-31T09:47:05;100286.56;;;17.34;100.00
72285;BME280;60220;53.552;10.092;2023-07-31T09:49:32;100280.66;;;18.33;100.00
72285;BME280;60220;53.552;10.092;2023-07-31T09:51:59;100270.38;;;18.10;100.00
72285;BME280;60220;53.552;10.092;2023-07-31T09:54:25;100285.81;;;18.71;100.00
72285;BME280;60220;53.552;10.092;2023-07-31T09:56:58;100268.69;;;18.92;100.00
72285;BME280;60220;53.552;10.092;2023-07-31T09:59:28;100264.59;;;18.36;100.00
72285;BME280;60220;53.552;10.092;2023-07-31T10:01:56;100259.94;;;18.40;100.00
72285;BME280;60220;53.552;10.092;2023-07-31T10:04:27;100258.41;;;19.02;100.00
72285;BME280;60220;53.552;10.092;2023-07-31T10:06:54;100260.03;;;19.67;100.00
72285;BME280;60220;53.552;10.092;2023-07-31T10:09:25;100256.69;;;19.48;100.00
72285;BME280;60220;53.552;10.092;2023-07-31T10:12:02;100257.16;;;19.39;100.00
72285;BME280;60220;53.552;10.092;2023-07-31T10:14:32;100252.91;;;19.67;100.00
72285;BME280;60220;53.552;10.092;2023-07-31T10:16:59;100247.59;;;19.52;100.00
72285;BME280;60220;53.552;10.092;2023-07-31T10:19:26;100251.44;;;19.30;100.00
72285;BME280;60220;53.552;10.092;2023-07-31T10:21:53;100254.78;;;19.50;100.00
72285;BME280;60220;53.552;10.092;2023-07-31T10:24:22;100259.44;;;19.30;100.00
72285;BME280;60220;53.552;10.092;2023-07-31T10:26:50;100259.75;;;19.24;100.00
72285;BME280;60220;53.552;10.092;2023-07-31T10:29:21;100255.56;;;19.20;100.00
72285;BME280;60220;53.552;10.092;2023-07-31T10:31:50;100256.16;;;19.25;100.00
72285;BME280;60220;53.552;10.092;2023-07-31T10:34:17;100255.38;;;19.55;100.00
72285;BME280;60220;53.552;10.092;2023-07-31T10:36:44;100249.72;;;19.61;100.00
72285;BME280;60220;53.552;10.092;2023-07-31T10:39:34;100245.81;;;19.82;100.00
72285;BME280;60220;53.552;10.092;2023-07-31T10:42:10;100237.78;;;19.37;100.00
72285;BME280;60220;53.552;10.092;2023-07-31T10:44:38;100244.88;;;18.58;100.00
72285;BME280;60220;53.552;10.092;2023-07-31T10:47:08;100239.66;;;19.03;100.00
72285;BME280;60220;53.552;10.092;2023-07-31T10:49:38;100240.03;;;18.97;100.00
72285;BME280;60220;53.552;10.092;2023-07-31T10:52:10;100230.84;;;19.18;100.00
72285;BME280;60220;53.552;10.092;2023-07-31T10:54:38;100238.56;;;18.76;100.00
72285;BME280;60220;53.552;10.092;2023-07-31T10:57:19;100226.88;;;18.94;100.00
72285;BME280;60220;53.552;10.092;2023-07-31T10:59:49;100236.78;;;18.09;100.00
72285;BME280;60220;53.552;10.092;2023-07-31T11:02:25;100234.00;;;18.12;100.00
72285;BME280;60220;53.552;10.092;2023-07-31T11:05:07;100226.44;;;18.37;100.00
72285;BME280;60220;53.552;10.092;2023-07-31T11:07:47;100227.69;;;18.96;100.00
72285;BME280;60220;53.552;10.092;2023-07-31T11:10:16;100226.78;;;18.14;100.00
72285;BME280;60220;53.552;10.092;2023-07-31T11:12:44;100228.88;;;19.06;100.00
72285;BME280;60220;53.552;10.092;2023-07-31T11:15:13;100221.16;;;18.86;100.00
72285;BME280;60220;53.552;10.092;2023-07-31T11:17:39;100222.94;;;18.37;100.00
72285;BME280;60220;53.552;10.092;2023-07-31T11:20:07;100219.22;;;18.39;100.00
72285;BME280;60220;53.552;10.092;2023-07-31T11:22:34;100216.50;;;19.05;100.00
72285;BME280;60220;53.552;10.092;2023-07-31T11:25:04;100203.97;;;18.76;100.00
72285;BME280;60220;53.552;10.092;2023-07-31T11:27:31;100203.34;;;18.55;100.00
72285;BME280;60220;53.552;10.092;2023-07-31T11:30:00;100201.84;;;18.98;100.00
72285;BME280;60220;53.552;10.092;2023-07-31T11:32:29;100201.38;;;18.08;100.00
72285;BME280;60220;53.552;10.092;2023-07-31T11:34:58;100196.53;;;18.67;100.00
72285;BME280;60220;53.552;10.092;2023-07-31T11:37:38;100196.78;;;18.45;100.00
72285;BME280;60220;53.552;10.092;2023-07-31T11:40:06;100187.66;;;18.18;100.00
72285;BME280;60220;53.552;10.092;2023-07-31T11:42:34;100184.97;;;18.50;100.00
72285;BME280;60220;53.552;10.092;2023-07-31T11:45:03;100192.84;;;18.19;100.00
72285;BME280;60220;53.552;10.092;2023-07-31T11:47:33;100192.31;;;17.62;100.00
72285;BME280;60220;53.552;10.092;2023-07-31T11:50:01;100184.63;;;17.74;100.00
72285;BME280;60220;53.552;10.092;2023-07-31T11:52:29;100187.53;;;17.86;100.00
72285;BME280;60220;53.552;10.092;2023-07-31T11:54:59;100188.53;;;18.34;100.00
72285;BME280;60220;53.552;10.092;2023-07-31T11:57:26;100182.72;;;18.10;100.00
72285;BME280;60220;53.552;10.092;2023-07-31T11:59:54;100193.13;;;18.47;100.00
72285;BME280;60220;53.552;10.092;2023-07-31T12:02:21;100200.53;;;18.74;100.00
72285;BME280;60220;53.552;10.092;2023-07-31T12:04:50;100190.88;;;18.73;100.00
72285;BME280;60220;53.552;10.092;2023-07-31T12:07:16;100189.72;;;19.08;100.00
72285;BME280;60220;53.552;10.092;2023-07-31T12:09:53;100188.19;;;19.04;100.00
72285;BME280;60220;53.552;10.092;2023-07-31T12:12:20;100185.78;;;19.47;100.00
72285;BME280;60220;53.552;10.092;2023-07-31T12:14:48;100200.72;;;18.71;100.00
72285;BME280;60220;53.552;10.092;2023-07-31T12:17:19;100198.06;;;18.38;100.00
72285;BME280;60220;53.552;10.092;2023-07-31T12:19:49;100194.03;;;19.26;100.00
72285;BME280;60220;53.552;10.092;2023-07-31T12:22:16;100191.41;;;18.46;100.00
72285;BME280;60220;53.552;10.092;2023-07-31T12:24:43;100183.38;;;19.26;100.00
72285;BME280;60220;53.552;10.092;2023-07-31T12:27:15;100175.84;;;18.72;100.00
72285;BME280;60220;53.552;10.092;2023-07-31T12:29:43;100182.47;;;18.96;100.00
72285;BME280;60220;53.552;10.092;2023-07-31T12:32:20;100176.00;;;19.91;100.00
72285;BME280;60220;53.552;10.092;2023-07-31T12:34:47;100170.56;;;19.49;100.00